Time;durP1;ratioP1;P1;durP2;ratioP2;P2;SDS_P1;SDS_P2;PMS_P1;PMS_P2;Temp;Humidity;BMP_temperature;BMP_pressure;BME280_temperature;BME280_humidity;BME280_pressure;Samples;Min_cycle;Max_cycle;Signal;HPM_P1;HPM_P2
2021/08/20 00:00:07;;;;;;;9.20;5.23;;;17.60;99.90;;;;;;5094967;28;20305;-78
2021/08/20 00:02:35;;;;;;;9.27;5.40;;;17.60;99.90;;;;;;5095180;28;20202;-77
2021/08/20 00:05:03;;;;;;;9.60;5.07;;;17.60;99.90;;;;;;5094709;28;20682;-76
2021/08/20 00:07:29;;;;;;;13.20;5.57;;;17.60;99.90;;;;;;5094749;28;20202;-77
2021/08/20 00:09:58;;;;;;;8.93;5.43;;;17.60;99.90;;;;;;5108888;28;20230;-76
2021/08/20 00:12:26;;;;;;;10.53;5.57;;;17.60;99.90;;;;;;5114758;28;20236;-79
2021/08/20 00:14:55;;;;;;;11.70;6.10;;;17.60;99.90;;;;;;5115016;28;20208;-76
2021/08/20 00:17:24;;;;;;;8.83;5.70;;;17.60;99.90;;;;;;5109740;28;20201;-77
2021/08/20 00:19:51;;;;;;;11.10;6.47;;;17.50;99.90;;;;;;5104939;28;20313;-79
2021/08/20 00:22:18;;;;;;;12.33;6.40;;;17.60;99.90;;;;;;5110228;28;20230;-76
2021/08/20 00:24:45;;;;;;;16.17;7.20;;;17.60;99.90;;;;;;5114383;28;20671;-78
2021/08/20 00:27:12;;;;;;;10.57;6.67;;;17.60;99.90;;;;;;5114315;28;20226;-75
2021/08/20 00:29:39;;;;;;;14.27;6.90;;;17.70;99.90;;;;;;5114584;28;20237;-77
2021/08/20 00:32:06;;;;;;;14.17;7.30;;;17.70;99.90;;;;;;5114194;28;20292;-76
2021/08/20 00:34:35;;;;;;;11.80;7.27;;;17.60;99.90;;;;;;5114725;28;20285;-79
2021/08/20 00:37:02;;;;;;;15.07;8.03;;;17.70;99.90;;;;;;5114477;28;20284;-76
2021/08/20 00:39:29;;;;;;;14.93;7.87;;;17.70;99.90;;;;;;5114240;28;20313;-79
2021/08/20 00:41:56;;;;;;;11.27;7.57;;;17.70;99.90;;;;;;5114230;28;20289;-78
2021/08/20 00:44:23;;;;;;;10.77;7.67;;;17.70;99.90;;;;;;5110394;28;20206;-77
2021/08/20 00:46:50;;;;;;;13.00;7.73;;;17.70;99.90;;;;;;5103213;28;20277;-78
2021/08/20 00:49:17;;;;;;;15.03;8.37;;;17.80;99.90;;;;;;5114171;28;20229;-75
2021/08/20 00:51:46;;;;;;;16.47;9.07;;;17.80;99.90;;;;;;5114469;28;20310;-79
2021/08/20 00:54:16;;;;;;;12.60;8.33;;;17.70;99.90;;;;;;5113971;28;20202;-76
2021/08/20 00:56:45;;;;;;;17.47;9.10;;;17.60;99.90;;;;;;5114403;28;20214;-77
2021/08/20 00:59:13;;;;;;;14.97;8.53;;;17.60;99.90;;;;;;5114142;28;20225;-76
2021/08/20 01:01:40;;;;;;;13.53;8.17;;;17.60;99.90;;;;;;5113791;28;20678;-78
2021/08/20 01:04:08;;;;;;;21.80;9.00;;;17.60;99.90;;;;;;5111620;28;20313;-76
2021/08/20 01:06:37;;;;;;;15.00;8.87;;;17.50;99.90;;;;;;5111791;28;20202;-76
2021/08/20 01:09:06;;;;;;;16.97;9.60;;;17.60;99.90;;;;;;5112848;28;20202;-76
2021/08/20 01:11:34;;;;;;;15.47;9.80;;;17.40;99.90;;;;;;5113780;28;20249;-77
2021/08/20 01:14:01;;;;;;;15.27;9.23;;;17.40;99.90;;;;;;5114106;28;20284;-78
2021/08/20 01:16:28;;;;;;;19.87;10.03;;;17.40;99.90;;;;;;5113586;28;20629;-78
2021/08/20 01:18:55;;;;;;;17.03;9.83;;;17.30;99.90;;;;;;5113051;28;20656;-77
2021/08/20 01:21:24;;;;;;;15.43;9.73;;;17.40;99.90;;;;;;5113506;28;20569;-80
2021/08/20 01:23:52;;;;;;;14.37;9.10;;;17.40;99.90;;;;;;5107393;28;20614;-79
2021/08/20 01:26:21;;;;;;;15.27;8.57;;;17.40;99.90;;;;;;5113911;28;20252;-77
2021/08/20 01:28:48;;;;;;;16.73;8.83;;;17.50;99.90;;;;;;5113347;28;20702;-77
2021/08/20 01:31:17;;;;;;;13.33;8.10;;;17.50;99.90;;;;;;5113143;28;20281;-76
2021/08/20 01:33:45;;;;;;;14.53;7.40;;;17.50;99.90;;;;;;5113687;28;20293;-75
2021/08/20 01:36:12;;;;;;;14.57;7.83;;;17.50;99.90;;;;;;5098929;28;20707;-75
2021/08/20 01:38:48;;;;;;;16.20;8.27;;;17.60;99.90;;;;;;5113749;28;20285;-77
2021/08/20 01:41:15;;;;;;;11.60;6.67;;;17.70;99.90;;;;;;5113123;28;20229;-77
2021/08/20 01:43:44;;;;;;;11.77;7.27;;;17.50;99.90;;;;;;5113317;28;20198;-76
2021/08/20 01:46:11;;;;;;;9.97;6.70;;;17.60;99.90;;;;;;5113024;28;20281;-79
2021/08/20 01:48:45;;;;;;;24.40;6.47;;;17.70;99.90;;;;;;5113456;28;20582;-80
2021/08/20 01:51:14;;;;;;;9.37;5.83;;;17.70;99.90;;;;;;5098830;28;20195;-75
2021/08/20 01:53:41;;;;;;;11.83;5.83;;;17.80;99.90;;;;;;5113027;28;20660;-77
2021/08/20 01:56:14;;;;;;;11.53;5.30;;;17.70;99.90;;;;;;5112688;28;20233;-78
2021/08/20 01:58:43;;;;;;;8.63;5.00;;;17.70;99.90;;;;;;5113269;28;20236;-76
2021/08/20 02:01:10;;;;;;;10.33;5.37;;;17.80;99.90;;;;;;5113084;28;20732;-77
2021/08/20 02:03:37;;;;;;;8.77;5.10;;;17.80;99.90;;;;;;5107585;28;20289;-75
2021/08/20 02:06:04;;;;;;;9.30;5.90;;;17.80;99.90;;;;;;5108158;28;20225;-77
2021/08/20 02:08:31;;;;;;;7.97;5.37;;;17.80;99.90;;;;;;5112609;28;20281;-78
2021/08/20 02:10:58;;;;;;;8.97;5.50;;;17.80;99.90;;;;;;5113335;28;20255;-76
2021/08/20 02:13:26;;;;;;;7.13;5.67;;;17.70;99.90;;;;;;5113321;28;20285;-77
2021/08/20 02:15:54;;;;;;;8.97;5.60;;;17.70;99.90;;;;;;5113249;28;20233;-78
2021/08/20 02:18:21;;;;;;;9.07;5.40;;;17.70;99.90;;;;;;5112911;28;20230;-76
2021/08/20 02:20:48;;;;;;;9.73;5.10;;;17.70;99.90;;;;;;5116818;28;20217;-79
2021/08/20 02:23:16;;;;;;;7.07;5.43;;;17.80;99.90;;;;;;5101425;28;20290;-75
2021/08/20 02:25:43;;;;;;;6.50;5.00;;;17.80;99.90;;;;;;5116714;28;20286;-76
2021/08/20 02:28:10;;;;;;;7.97;5.03;;;17.90;99.90;;;;;;5116811;28;20202;-78
2021/08/20 02:30:37;;;;;;;7.57;4.83;;;17.90;99.90;;;;;;5116584;28;20277;-77
2021/08/20 02:33:06;;;;;;;6.63;4.30;;;17.90;99.90;;;;;;5116843;27;20221;-78
2021/08/20 02:35:33;;;;;;;8.27;4.80;;;17.80;99.90;;;;;;5116832;28;20276;-76
2021/08/20 02:37:59;;;;;;;6.80;4.10;;;17.80;99.90;;;;;;5116937;28;20281;-77
2021/08/20 02:40:26;;;;;;;5.40;4.00;;;17.80;99.90;;;;;;5116279;28;20309;-76
2021/08/20 02:42:53;;;;;;;5.53;4.17;;;17.90;99.90;;;;;;5117651;28;20680;-76
2021/08/20 02:45:20;;;;;;;7.43;4.60;;;17.90;99.90;;;;;;5117398;28;20253;-77
2021/08/20 02:47:47;;;;;;;7.30;4.23;;;17.90;99.90;;;;;;5116740;28;20222;-76
2021/08/20 02:50:16;;;;;;;7.57;4.20;;;17.90;99.90;;;;;;5117349;28;20210;-80
2021/08/20 02:52:43;;;;;;;8.60;4.43;;;17.90;99.90;;;;;;5116230;28;20290;-75
2021/08/20 02:55:10;;;;;;;7.90;4.33;;;17.90;99.90;;;;;;5116860;28;20198;-77
2021/08/20 02:57:38;;;;;;;6.57;4.37;;;17.80;99.90;;;;;;5116017;28;20259;-78
2021/08/20 03:00:06;;;;;;;7.27;4.43;;;17.90;99.90;;;;;;5116218;28;20713;-79
2021/08/20 03:02:33;;;;;;;7.20;4.37;;;17.80;99.90;;;;;;5116529;28;20261;-77
2021/08/20 03:05:00;;;;;;;6.40;4.00;;;17.80;99.90;;;;;;5092002;28;20285;-77
2021/08/20 03:07:28;;;;;;;7.17;4.60;;;17.80;99.90;;;;;;5116803;28;20586;-77
2021/08/20 03:09:55;;;;;;;5.97;4.30;;;17.80;99.90;;;;;;5115919;28;20290;-76
2021/08/20 03:12:24;;;;;;;6.47;4.33;;;17.90;99.90;;;;;;5116357;28;20277;-78
2021/08/20 03:14:51;;;;;;;8.23;5.13;;;17.90;99.90;;;;;;5116313;28;20214;-78
2021/08/20 03:17:18;;;;;;;6.20;5.20;;;17.80;99.90;;;;;;5116219;27;20202;-76
2021/08/20 03:19:45;;;;;;;7.17;4.80;;;17.90;99.90;;;;;;5115481;28;20305;-76
2021/08/20 03:22:12;;;;;;;8.77;5.13;;;17.80;99.90;;;;;;5115698;28;20202;-78
2021/08/20 03:24:41;;;;;;;8.27;4.93;;;17.70;99.90;;;;;;5111048;28;20226;-77
2021/08/20 03:27:08;;;;;;;5.63;4.70;;;17.80;99.90;;;;;;5115846;28;20271;-77
2021/08/20 03:29:34;;;;;;;9.33;5.37;;;17.70;99.90;;;;;;5116018;28;20277;-77
2021/08/20 03:32:01;;;;;;;8.00;4.80;;;17.60;99.90;;;;;;5100143;28;20285;-76
2021/08/20 03:34:28;;;;;;;8.17;5.03;;;17.60;99.90;;;;;;5115778;28;20229;-76
2021/08/20 03:36:55;;;;;;;7.53;5.70;;;17.60;99.90;;;;;;5115685;28;20210;-78
2021/08/20 03:39:23;;;;;;;8.47;5.03;;;17.60;99.90;;;;;;5116369;28;20222;-78
2021/08/20 03:41:51;;;;;;;6.73;5.23;;;17.60;99.90;;;;;;5115180;28;20686;-76
2021/08/20 03:44:19;;;;;;;7.70;5.60;;;17.60;99.90;;;;;;5115985;28;20198;-78
2021/08/20 03:46:46;;;;;;;7.70;4.93;;;17.60;99.90;;;;;;5116504;28;20210;-78
2021/08/20 03:49:13;;;;;;;6.63;5.20;;;17.60;99.90;;;;;;5116167;28;20194;-79
2021/08/20 03:51:40;;;;;;;6.73;4.93;;;17.60;99.90;;;;;;5116104;28;20281;-79
2021/08/20 03:54:07;;;;;;;6.10;4.73;;;17.50;99.90;;;;;;5115760;28;20632;-80
2021/08/20 03:56:34;;;;;;;8.00;5.03;;;17.60;99.90;;;;;;5105746;28;20237;-81
2021/08/20 03:59:02;;;;;;;6.43;4.53;;;17.50;99.90;;;;;;5111256;28;20280;-80
2021/08/20 04:01:29;;;;;;;7.80;5.07;;;17.50;99.90;;;;;;5115494;28;20638;-80
2021/08/20 04:03:56;;;;;;;9.03;4.90;;;17.50;99.90;;;;;;5114387;28;20240;-77
2021/08/20 04:06:23;;;;;;;9.70;5.63;;;17.40;99.90;;;;;;5115299;28;20205;-76
2021/08/20 04:08:50;;;;;;;8.57;6.40;;;17.40;99.90;;;;;;5115355;28;20238;-80
2021/08/20 04:11:16;;;;;;;10.17;6.23;;;17.40;99.90;;;;;;5114860;28;20229;-80
2021/08/20 04:13:43;;;;;;;10.20;6.70;;;17.40;99.90;;;;;;5114756;28;20570;-79
2021/08/20 04:16:12;;;;;;;11.60;7.50;;;17.50;99.90;;;;;;5115067;28;20255;-80
2021/08/20 04:18:40;;;;;;;11.60;7.83;;;17.40;99.90;;;;;;5114834;27;20728;-81
2021/08/20 04:21:07;;;;;;;14.97;8.00;;;17.40;99.90;;;;;;5114604;28;20220;-79
2021/08/20 04:23:34;;;;;;;14.23;8.50;;;17.40;99.90;;;;;;5115036;28;20199;-80
2021/08/20 04:26:02;;;;;;;10.13;7.57;;;17.40;99.90;;;;;;5114628;27;20265;-80
2021/08/20 04:28:29;;;;;;;12.03;7.93;;;17.40;99.90;;;;;;5108209;28;20256;-77
2021/08/20 04:30:55;;;;;;;13.60;8.33;;;17.40;99.90;;;;;;5107056;28;20237;-80
2021/08/20 04:33:24;;;;;;;10.80;8.13;;;17.50;99.90;;;;;;5114685;28;20289;-78
2021/08/20 04:35:51;;;;;;;10.67;8.27;;;17.40;99.90;;;;;;5114324;28;20647;-78
2021/08/20 04:38:17;;;;;;;13.33;8.63;;;17.40;99.90;;;;;;5114818;28;20229;-77
2021/08/20 04:40:44;;;;;;;10.57;8.40;;;17.30;99.90;;;;;;5108081;28;20237;-77
2021/08/20 04:43:11;;;;;;;10.03;8.03;;;17.30;99.90;;;;;;5095233;28;20213;-79
2021/08/20 04:45:38;;;;;;;13.43;8.60;;;17.30;99.90;;;;;;5101864;28;20198;-80
2021/08/20 04:48:05;;;;;;;15.17;8.57;;;17.30;99.90;;;;;;5113960;28;20283;-78
2021/08/20 04:50:34;;;;;;;11.27;8.67;;;17.30;99.90;;;;;;5110366;28;20672;-77
2021/08/20 04:53:01;;;;;;;15.00;9.17;;;17.30;99.90;;;;;;5105367;28;20194;-79
2021/08/20 04:55:27;;;;;;;14.00;8.33;;;17.30;99.90;;;;;;5098720;28;20203;-80
2021/08/20 04:57:54;;;;;;;13.93;8.33;;;17.40;99.90;;;;;;5101560;28;20641;-80
2021/08/20 05:00:21;;;;;;;11.23;8.30;;;17.40;99.90;;;;;;5100793;28;20250;-81
2021/08/20 05:02:48;;;;;;;12.27;8.77;;;17.40;99.90;;;;;;5097246;28;20620;-80
2021/08/20 05:05:15;;;;;;;12.87;8.37;;;17.40;99.90;;;;;;5093870;28;20229;-81
2021/08/20 05:07:44;;;;;;;12.00;8.20;;;17.40;99.90;;;;;;5092482;28;20648;-79
2021/08/20 05:10:12;;;;;;;11.80;8.10;;;17.40;99.90;;;;;;5098310;28;20282;-79
2021/08/20 05:12:40;;;;;;;11.63;8.03;;;17.30;99.90;;;;;;5100147;28;20282;-80
2021/08/20 05:15:09;;;;;;;13.30;9.30;;;17.30;99.90;;;;;;5104683;28;20240;-79
2021/08/20 05:17:37;;;;;;;10.77;8.30;;;17.40;99.90;;;;;;5094496;28;20209;-81
2021/08/20 05:20:05;;;;;;;15.73;8.67;;;17.40;99.90;;;;;;5107913;28;20263;-80
2021/08/20 05:22:48;;;;;;;11.37;8.80;;;17.40;99.90;;;;;;5102410;28;20554;-81
2021/08/20 05:25:15;;;;;;;12.20;8.43;;;17.50;99.90;;;;;;5094698;28;20234;-80
2021/08/20 05:27:42;;;;;;;17.00;8.57;;;17.40;99.90;;;;;;5093769;28;20259;-79
2021/08/20 05:30:11;;;;;;;11.97;8.67;;;17.50;99.90;;;;;;5102071;28;20293;-81
2021/08/20 05:32:38;;;;;;;15.23;8.57;;;17.40;99.90;;;;;;5094150;28;20207;-80
2021/08/20 05:35:13;;;;;;;12.07;8.00;;;17.40;99.90;;;;;;5093137;28;20242;-80
2021/08/20 05:37:40;;;;;;;10.60;7.73;;;17.40;99.90;;;;;;5092444;28;20275;-79
2021/08/20 05:40:10;;;;;;;13.07;8.03;;;17.50;99.90;;;;;;5094906;28;20199;-80
2021/08/20 05:42:38;;;;;;;10.87;7.73;;;17.50;99.90;;;;;;5095164;28;20299;-78
2021/08/20 05:45:05;;;;;;;12.63;7.87;;;17.50;99.90;;;;;;5079469;28;20211;-81
2021/08/20 05:47:32;;;;;;;11.67;7.70;;;17.60;99.90;;;;;;5094125;28;20712;-82
2021/08/20 05:49:59;;;;;;;9.83;7.27;;;17.60;99.90;;;;;;5092954;28;20213;-78
2021/08/20 05:52:26;;;;;;;12.27;7.27;;;17.60;99.90;;;;;;5099367;28;20202;-80
2021/08/20 05:54:53;;;;;;;8.93;7.33;;;17.60;99.90;;;;;;5095815;28;20294;-79
2021/08/20 05:57:22;;;;;;;12.13;7.63;;;17.60;99.90;;;;;;5095501;28;20290;-80
2021/08/20 05:59:49;;;;;;;12.63;7.13;;;17.70;99.90;;;;;;5096185;28;20218;-77
2021/08/20 06:02:15;;;;;;;10.50;7.50;;;17.70;99.90;;;;;;5096590;28;20258;-80
2021/08/20 06:04:42;;;;;;;12.30;7.77;;;17.80;99.90;;;;;;5098205;28;20291;-77
2021/08/20 06:07:11;;;;;;;10.47;7.80;;;17.80;99.90;;;;;;5092850;28;20207;-76
2021/08/20 06:09:38;;;;;;;9.07;7.57;;;17.80;99.90;;;;;;5098740;28;20201;-79
2021/08/20 06:12:07;;;;;;;11.90;7.67;;;17.90;99.90;;;;;;5092302;28;20711;-77
2021/08/20 06:14:35;;;;;;;9.43;8.00;;;17.90;99.90;;;;;;5085574;28;20286;-79
2021/08/20 06:17:02;;;;;;;9.70;8.10;;;18.00;99.90;;;;;;5091575;28;20211;-76
2021/08/20 06:19:29;;;;;;;11.50;8.47;;;18.10;99.90;;;;;;5094474;28;20234;-76
2021/08/20 06:21:56;;;;;;;10.03;8.53;;;18.20;99.90;;;;;;5097582;28;20237;-76
2021/08/20 06:24:22;;;;;;;11.93;8.63;;;18.40;99.90;;;;;;5095943;28;20209;-77
2021/08/20 06:26:50;;;;;;;11.80;8.23;;;18.70;99.90;;;;;;5103163;28;20302;-79
2021/08/20 06:29:19;;;;;;;11.97;7.83;;;18.80;99.90;;;;;;5097120;28;20274;-77
2021/08/20 06:31:48;;;;;;;10.27;8.03;;;19.00;99.90;;;;;;5112242;28;20614;-79
2021/08/20 06:34:16;;;;;;;10.07;7.83;;;19.10;99.90;;;;;;5099833;28;20638;-79
2021/08/20 06:36:43;;;;;;;8.93;7.43;;;19.20;99.90;;;;;;5092969;28;20663;-77
2021/08/20 06:39:10;;;;;;;9.47;7.03;;;19.30;99.90;;;;;;5096656;28;20305;-77
2021/08/20 06:41:37;;;;;;;10.77;7.60;;;19.40;99.90;;;;;;5091822;28;20317;-80
2021/08/20 06:44:04;;;;;;;9.00;7.20;;;19.50;99.90;;;;;;5097248;28;20226;-80
2021/08/20 06:46:31;;;;;;;8.77;6.90;;;19.60;99.90;;;;;;5095282;28;20278;-79
2021/08/20 06:49:00;;;;;;;9.97;7.70;;;19.80;99.90;;;;;;5103327;28;20625;-77
2021/08/20 06:51:27;;;;;;;11.33;7.63;;;19.80;99.90;;;;;;5100706;28;20233;-78
2021/08/20 06:53:54;;;;;;;7.97;7.00;;;19.80;99.90;;;;;;5093821;28;20623;-79
2021/08/20 06:56:21;;;;;;;8.47;7.03;;;19.80;99.90;;;;;;5093108;28;20208;-78
2021/08/20 06:58:48;;;;;;;9.40;6.77;;;19.90;99.90;;;;;;5098266;28;20195;-78
2021/08/20 07:01:15;;;;;;;8.67;6.70;;;19.90;99.90;;;;;;5101827;28;20253;-79
2021/08/20 07:03:42;;;;;;;11.13;7.20;;;19.90;99.90;;;;;;5103896;28;20205;-78
2021/08/20 07:06:18;;;;;;;7.77;6.40;;;20.00;99.90;;;;;;5097279;28;20230;-78
2021/08/20 07:08:44;;;;;;;7.63;6.83;;;20.20;99.90;;;;;;5110162;28;20225;-77
2021/08/20 07:11:11;;;;;;;10.07;6.33;;;20.10;99.90;;;;;;5112252;28;20281;-79
2021/08/20 07:13:38;;;;;;;8.27;6.10;;;20.00;99.90;;;;;;5108028;28;20289;-77
2021/08/20 07:16:05;;;;;;;10.00;6.57;;;20.10;99.90;;;;;;5100274;28;20285;-78
2021/08/20 07:18:32;;;;;;;7.37;6.37;;;20.10;99.90;;;;;;5094753;28;20341;-77
2021/08/20 07:20:59;;;;;;;11.43;6.20;;;20.20;99.90;;;;;;5095952;28;20710;-78
2021/08/20 07:23:27;;;;;;;9.77;6.50;;;20.20;99.90;;;;;;5107581;28;20260;-78
2021/08/20 07:25:54;;;;;;;8.57;6.87;;;20.20;99.90;;;;;;5099458;28;20227;-77
2021/08/20 07:28:21;;;;;;;7.50;6.27;;;20.40;99.90;;;;;;5101244;28;20296;-77
2021/08/20 07:30:48;;;;;;;6.63;5.90;;;20.50;99.90;;;;;;5084124;28;20258;-77
2021/08/20 07:33:15;;;;;;;8.27;6.77;;;20.40;99.90;;;;;;5075012;28;20207;-78
2021/08/20 07:35:42;;;;;;;9.13;6.40;;;20.30;99.90;;;;;;5099037;28;20230;-77
2021/08/20 07:38:08;;;;;;;8.57;6.80;;;20.30;99.90;;;;;;5089813;28;20195;-78
2021/08/20 07:40:37;;;;;;;11.43;6.97;;;20.20;99.90;;;;;;5097230;28;20326;-78
2021/08/20 07:43:05;;;;;;;8.77;6.47;;;20.20;99.90;;;;;;5101263;28;20254;-77
2021/08/20 07:45:32;;;;;;;9.73;7.07;;;20.30;99.90;;;;;;5104540;28;20229;-75
2021/08/20 07:47:59;;;;;;;10.70;7.23;;;20.40;99.90;;;;;;5088705;28;20245;-76
2021/08/20 07:50:26;;;;;;;11.90;7.10;;;20.50;99.90;;;;;;5099445;28;20661;-76
2021/08/20 07:52:53;;;;;;;9.60;7.07;;;20.40;99.90;;;;;;5101373;28;20199;-76
2021/08/20 07:55:20;;;;;;;7.07;5.80;;;20.40;99.90;;;;;;5098930;28;20201;-76
2021/08/20 07:57:50;;;;;;;8.07;6.77;;;20.70;99.90;;;;;;5102350;28;20668;-76
2021/08/20 08:00:21;;;;;;;7.33;6.63;;;20.80;99.90;;;;;;5098733;28;20285;-75
2021/08/20 08:02:47;;;;;;;8.87;6.37;;;20.80;99.90;;;;;;5102468;28;20207;-76
2021/08/20 08:05:14;;;;;;;7.93;6.50;;;20.80;99.90;;;;;;5098890;28;20234;-80
2021/08/20 08:07:41;;;;;;;7.63;6.90;;;20.80;99.90;;;;;;5102128;28;20326;-79
2021/08/20 08:10:09;;;;;;;8.87;6.60;;;20.70;99.90;;;;;;5099325;28;20294;-79
2021/08/20 08:12:37;;;;;;;8.87;6.57;;;20.70;99.90;;;;;;5088872;28;20211;-77
2021/08/20 08:15:06;;;;;;;8.90;5.93;;;20.90;99.90;;;;;;5100819;28;20207;-77
2021/08/20 08:17:33;;;;;;;8.23;6.03;;;21.20;99.90;;;;;;5098713;28;20227;-78
2021/08/20 08:20:00;;;;;;;8.70;6.10;;;21.20;99.90;;;;;;5101569;28;20204;-77
2021/08/20 08:22:27;;;;;;;10.37;6.17;;;21.30;99.90;;;;;;5098254;28;20715;-77
2021/08/20 08:24:54;;;;;;;7.43;5.87;;;21.40;99.90;;;;;;5101623;28;20329;-77
2021/08/20 08:27:21;;;;;;;7.40;6.70;;;21.40;99.90;;;;;;5097787;28;20237;-77
2021/08/20 08:29:48;;;;;;;6.65;6.05;;;21.50;99.90;;;;;;5100882;28;20239;-77
2021/08/20 08:32:16;;;;;;;7.70;5.70;;;21.60;99.90;;;;;;5099635;28;20289;-78
2021/08/20 08:34:43;;;;;;;6.90;6.20;;;21.60;99.90;;;;;;5115128;28;20331;-79
2021/08/20 08:37:12;;;;;;;7.50;6.00;;;21.60;99.90;;;;;;5113616;28;20194;-79
2021/08/20 08:39:39;;;;;;;8.15;5.97;;;21.60;99.90;;;;;;5114034;28;20251;-79
2021/08/20 08:42:07;;;;;;;6.80;5.50;;;21.90;99.90;;;;;;5113973;28;20275;-80
2021/08/20 08:44:35;;;;;;;7.85;5.70;;;22.00;99.90;;;;;;5091598;28;20664;-77
2021/08/20 08:47:05;;;;;;;7.05;5.43;;;22.10;99.90;;;;;;5100806;28;20657;-77
2021/08/20 08:49:33;;;;;;;9.55;5.65;;;22.20;99.90;;;;;;5110887;28;20717;-79
2021/08/20 08:52:00;;;;;;;6.45;5.22;;;22.20;99.90;;;;;;5096330;28;20209;-78
2021/08/20 08:54:27;;;;;;;6.65;5.38;;;22.40;99.90;;;;;;5104333;28;20233;-79
2021/08/20 08:56:54;;;;;;;5.82;4.97;;;22.90;99.90;;;;;;5104359;28;20202;-79
2021/08/20 08:59:21;;;;;;;8.40;5.20;;;23.80;99.90;;;;;;5109327;28;20280;-80
2021/08/20 09:01:49;;;;;;;5.18;4.50;;;24.90;99.90;;;;;;5108832;28;20246;-79
2021/08/20 09:04:18;;;;;;;4.25;3.83;;;25.50;99.90;;;;;;5104700;28;20206;-80
2021/08/20 09:06:49;;;;;;;4.30;3.90;;;26.20;99.90;;;;;;5098943;28;20282;-77
2021/08/20 09:09:17;;;;;;;3.75;3.35;;;26.10;99.90;;;;;;5105847;28;20226;-79
2021/08/20 09:11:50;;;;;;;3.85;3.55;;;25.70;99.90;;;;;;5099766;28;20547;-79
2021/08/20 09:14:18;;;;;;;4.20;3.75;;;25.30;99.90;;;;;;5077716;28;20282;-77
2021/08/20 09:16:47;;;;;;;5.57;3.58;;;25.30;99.90;;;;;;5110717;28;20194;-78
2021/08/20 09:19:16;;;;;;;5.72;3.30;;;25.50;99.90;;;;;;5108855;28;20748;-78
2021/08/20 09:21:46;;;;;;;3.83;3.20;;;25.80;99.90;;;;;;5097301;28;20263;-77
2021/08/20 09:24:38;;;;;;;4.43;3.10;;;26.00;99.90;;;;;;5087603;28;20237;-79
2021/08/20 09:27:21;;;;;;;3.58;3.17;;;26.00;99.90;;;;;;5084695;28;20218;-78
2021/08/20 09:30:06;;;;;;;6.50;3.00;;;26.20;99.90;;;;;;5106194;28;20225;-77
2021/08/20 09:32:33;;;;;;;4.25;2.50;;;26.10;99.90;;;;;;5092319;28;20283;-79
2021/08/20 09:35:00;;;;;;;3.60;3.08;;;26.90;99.90;;;;;;5120242;28;20211;-79
2021/08/20 09:37:28;;;;;;;3.90;2.70;;;28.40;99.90;;;;;;5127333;28;20234;-78
2021/08/20 09:40:01;;;;;;;4.00;2.65;;;29.50;99.90;;;;;;5124642;28;20205;-78
2021/08/20 09:42:28;;;;;;;3.13;2.72;;;28.30;99.90;;;;;;5125808;28;20326;-76
2021/08/20 09:45:20;;;;;;;5.25;3.38;;;27.50;99.90;;;;;;5114174;28;20637;-79
2021/08/20 09:47:49;;;;;;;6.72;2.95;;;26.30;99.90;;;;;;5084084;28;20239;-79
2021/08/20 09:50:16;;;;;;;4.55;3.00;;;26.80;99.90;;;;;;5092461;28;20644;-79
2021/08/20 09:52:44;;;;;;;2.38;2.17;;;28.10;99.90;;;;;;5090443;28;20607;-81
2021/08/20 09:55:13;;;;;;;2.40;2.20;;;28.30;99.90;;;;;;5094106;28;20191;-78
2021/08/20 09:57:40;;;;;;;3.90;2.70;;;28.00;99.90;;;;;;5092722;28;20285;-77
2021/08/20 10:00:10;;;;;;;5.60;2.72;;;27.40;99.90;;;;;;5093079;28;20252;-78
2021/08/20 10:02:39;;;;;;;4.35;2.60;;;26.40;99.90;;;;;;5092565;28;20692;-78
2021/08/20 10:05:07;;;;;;;5.25;2.40;;;26.60;99.90;;;;;;5090628;28;20209;-79
2021/08/20 10:07:39;;;;;;;3.80;2.10;;;27.70;99.90;;;;;;5093144;28;20332;-77
2021/08/20 10:10:08;;;;;;;4.07;2.25;;;28.40;99.90;;;;;;5092603;28;20206;-77
2021/08/20 10:12:41;;;;;;;4.22;1.70;;;28.90;99.90;;;;;;5092380;28;20282;-78
2021/08/20 10:15:08;;;;;;;2.90;1.90;;;29.80;99.90;;;;;;5089972;28;20285;-79
2021/08/20 10:17:36;;;;;;;3.83;1.75;;;30.60;99.90;;;;;;5092116;28;20191;-79
2021/08/20 10:20:04;;;;;;;2.88;1.73;;;31.70;99.90;;;;;;5092189;28;20275;-78
2021/08/20 10:22:32;;;;;;;3.50;1.65;;;31.80;99.90;;;;;;5092242;28;20250;-79
2021/08/20 10:25:02;;;;;;;2.30;1.40;;;31.70;99.90;;;;;;5092307;28;20399;-77
2021/08/20 10:27:32;;;;;;;1.83;1.67;;;31.90;99.90;;;;;;5089765;28;20617;-78
2021/08/20 10:30:01;;;;;;;6.07;1.80;;;31.80;99.90;;;;;;5092378;28;20230;-79
2021/08/20 10:32:28;;;;;;;4.78;1.65;;;30.70;99.90;;;;;;5089690;28;20203;-79
2021/08/20 10:34:54;;;;;;;2.85;1.70;;;30.00;99.90;;;;;;5092475;28;20239;-78
2021/08/20 10:37:27;;;;;;;2.70;1.48;;;29.00;99.90;;;;;;5092047;28;20206;-79
2021/08/20 10:39:55;;;;;;;2.60;1.80;;;27.70;99.90;;;;;;5092902;28;20226;-78
2021/08/20 10:42:24;;;;;;;4.55;1.73;;;27.00;99.90;;;;;;5095647;28;20301;-78
2021/08/20 10:44:52;;;;;;;1.92;1.40;;;26.70;99.90;;;;;;5096015;28;20230;-79
2021/08/20 10:47:25;;;;;;;3.17;1.25;;;26.60;99.90;;;;;;5096111;28;20195;-78
2021/08/20 10:50:05;;;;;;;3.63;1.67;;;26.50;99.90;;;;;;5091253;28;20235;-78
2021/08/20 10:52:35;;;;;;;4.25;1.60;;;26.70;99.90;;;;;;5093735;28;20330;-78
2021/08/20 10:55:11;;;;;;;5.05;1.70;;;27.70;99.90;;;;;;5095531;28;20218;-81
2021/08/20 10:57:55;;;;;;;3.75;1.60;;;28.60;99.90;;;;;;5095748;28;20671;-79
2021/08/20 11:00:25;;;;;;;4.32;1.33;;;30.20;99.90;;;;;;5094964;28;20290;-77
2021/08/20 11:02:54;;;;;;;1.70;1.38;;;31.30;99.90;;;;;;5095676;28;20301;-78
2021/08/20 11:05:46;;;;;;;2.28;1.70;;;31.50;99.90;;;;;;5095606;28;20256;-79
2021/08/20 11:08:43;;;;;;;4.63;1.55;;;30.40;99.90;;;;;;5092907;28;20223;-79
2021/08/20 11:11:45;;;;;;;2.35;1.50;;;29.30;99.90;;;;;;5093713;28;20277;-76
2021/08/20 11:14:38;;;;;;;4.38;1.70;;;28.50;99.90;;;;;;5052116;28;20741;-79
2021/08/20 11:17:07;;;;;;;6.10;1.60;;;27.70;99.90;;;;;;5042891;28;20615;-76
2021/08/20 11:19:53;;;;;;;3.70;1.38;;;27.50;99.90;;;;;;5094088;28;20618;-76
2021/08/20 11:22:23;;;;;;;3.05;1.58;;;27.40;99.90;;;;;;5094245;28;20214;-82
2021/08/20 11:28:03;;;;;;;3.28;1.55;;;28.30;99.90;;;;;;5020287;28;20228;-76
2021/08/20 11:30:32;;;;;;;6.55;1.85;;;29.70;99.90;;;;;;5025378;28;20643;-78
2021/08/20 11:33:20;;;;;;;3.42;1.67;;;30.70;99.90;;;;;;5026467;28;20209;-78
2021/08/20 11:35:53;;;;;;;5.78;1.70;;;31.30;99.90;;;;;;5031274;28;20234;-79
2021/08/20 11:38:33;;;;;;;5.65;2.03;;;31.80;99.90;;;;;;5032692;28;20193;-78
2021/08/20 11:41:05;;;;;;;3.78;1.55;;;31.20;99.90;;;;;;5029774;28;20667;-79
2021/08/20 11:43:32;;;;;;;2.15;1.30;;;30.00;99.90;;;;;;5032942;28;20239;-81
2021/08/20 11:46:05;;;;;;;2.75;1.50;;;29.20;99.90;;;;;;5028302;28;20203;-79
2021/08/20 11:48:42;;;;;;;2.42;1.25;;;28.30;99.90;;;;;;5026602;28;20212;-77
2021/08/20 11:51:11;;;;;;;2.47;1.48;;;28.90;99.90;;;;;;5030066;28;20211;-77
2021/08/20 11:53:39;;;;;;;3.58;1.70;;;30.10;99.90;;;;;;5089039;28;20252;-79
2021/08/20 11:56:12;;;;;;;3.28;1.42;;;31.20;99.90;;;;;;5102323;28;20264;-79
2021/08/20 11:58:39;;;;;;;2.33;1.65;;;31.70;99.90;;;;;;5097029;28;20210;-81
2021/08/20 12:01:06;;;;;;;5.15;1.88;;;31.40;99.90;;;;;;5102464;28;20225;-80
2021/08/20 12:03:35;;;;;;;4.03;1.80;;;30.50;99.90;;;;;;5108747;28;20279;-80
2021/08/20 12:06:14;;;;;;;2.63;1.58;;;30.40;99.90;;;;;;5094697;28;20254;-79
2021/08/20 12:08:41;;;;;;;3.30;1.40;;;30.50;99.90;;;;;;5109722;28;20744;-79
2021/08/20 12:11:11;;;;;;;1.77;1.48;;;31.20;99.90;;;;;;5095952;28;20218;-78
2021/08/20 12:13:46;;;;;;;2.90;1.40;;;31.50;99.90;;;;;;5094958;28;20198;-78
2021/08/20 12:16:34;;;;;;;4.55;1.70;;;31.50;99.90;;;;;;5106790;28;20594;-79
2021/08/20 12:19:12;;;;;;;1.88;1.33;;;30.90;99.90;;;;;;5100301;28;20289;-78
2021/08/20 12:21:44;;;;;;;2.67;1.33;;;30.00;99.90;;;;;;5098586;28;20194;-78
2021/08/20 12:24:12;;;;;;;3.75;1.10;;;29.10;99.90;;;;;;5079828;28;20219;-77
2021/08/20 12:26:39;;;;;;;2.38;1.45;;;28.00;99.90;;;;;;5102041;28;20233;-79
2021/08/20 12:29:14;;;;;;;3.58;1.60;;;27.60;99.90;;;;;;5093955;28;20191;-79
2021/08/20 12:31:53;;;;;;;3.55;1.40;;;27.20;99.90;;;;;;5093197;28;20274;-79
2021/08/20 12:34:27;;;;;;;6.40;1.40;;;27.00;99.90;;;;;;5095609;28;20211;-78
2021/08/20 12:36:56;;;;;;;3.28;1.58;;;26.80;99.90;;;;;;5094013;28;20678;-78
2021/08/20 12:39:35;;;;;;;3.33;1.63;;;26.90;99.90;;;;;;5094316;28;20261;-79
2021/08/20 12:42:23;;;;;;;4.28;1.70;;;26.80;99.90;;;;;;5098568;28;20256;-80
2021/08/20 12:45:07;;;;;;;3.42;1.27;;;27.70;99.90;;;;;;5084579;28;20661;-80
2021/08/20 12:47:34;;;;;;;2.47;1.67;;;28.70;99.90;;;;;;5092334;28;20260;-80
2021/08/20 12:50:02;;;;;;;1.88;1.23;;;28.90;99.90;;;;;;5092824;28;20191;-82
2021/08/20 12:52:31;;;;;;;4.18;1.38;;;29.20;99.90;;;;;;5094012;28;20190;-78
2021/08/20 12:54:58;;;;;;;3.58;1.50;;;29.60;99.90;;;;;;5093624;28;20258;-77